createdAt,value
2018-11-25T00:01:41.251Z,78.70
2018-11-25T00:04:09.910Z,78.70
2018-11-25T00:06:38.487Z,78.70
2018-11-25T00:09:08.857Z,78.70
2018-11-25T00:11:37.811Z,78.70
2018-11-25T00:14:06.381Z,78.50
2018-11-25T00:16:34.883Z,78.80
2018-11-25T00:19:03.726Z,78.80
2018-11-25T00:21:32.372Z,78.60
2018-11-25T00:24:00.936Z,78.80
2018-11-25T00:26:29.479Z,79.00
2018-11-25T00:28:58.031Z,79.00
2018-11-25T00:31:26.564Z,78.80
2018-11-25T00:33:55.312Z,78.80
2018-11-25T00:36:23.795Z,78.80
2018-11-25T00:38:52.308Z,78.80
2018-11-25T00:41:20.917Z,78.90
2018-11-25T00:43:49.472Z,78.80
2018-11-25T00:46:18.025Z,78.80
2018-11-25T00:48:46.526Z,78.90
2018-11-25T00:51:15.047Z,78.80
2018-11-25T00:53:43.682Z,78.90
2018-11-25T00:56:12.276Z,78.90
2018-11-25T00:58:40.811Z,78.80
2018-11-25T01:01:10.163Z,78.90
2018-11-25T01:03:38.812Z,78.80
2018-11-25T01:06:07.572Z,79.10
2018-11-25T01:08:36.364Z,79.30
2018-11-25T01:11:06.023Z,79.40
2018-11-25T01:13:34.738Z,79.30
2018-11-25T01:16:03.483Z,79.50
2018-11-25T01:18:32.066Z,80.30
2018-11-25T01:21:00.628Z,79.70
2018-11-25T01:23:29.167Z,79.70
2018-11-25T01:25:57.750Z,79.70
2018-11-25T01:28:26.343Z,79.80
2018-11-25T01:30:54.913Z,79.70
2018-11-25T01:33:23.940Z,79.70
2018-11-25T01:35:52.879Z,79.70
2018-11-25T01:38:21.544Z,79.60
2018-11-25T01:40:50.155Z,79.70
2018-11-25T01:43:18.910Z,79.90
2018-11-25T01:45:48.146Z,79.80
2018-11-25T01:48:16.808Z,80.00
2018-11-25T01:50:45.506Z,79.90
2018-11-25T01:53:14.631Z,79.90
2018-11-25T01:55:44.974Z,79.90
2018-11-25T01:58:13.523Z,80.70
2018-11-25T02:00:42.735Z,80.10
2018-11-25T02:03:11.809Z,80.00
2018-11-25T02:05:44.809Z,80.00
2018-11-25T02:08:13.329Z,80.10
2018-11-25T02:10:41.833Z,81.00
2018-11-25T02:13:10.464Z,80.30
2018-11-25T02:15:38.998Z,80.00
2018-11-25T02:18:07.471Z,80.00
2018-11-25T02:20:35.932Z,80.00
2018-11-25T02:23:04.511Z,79.90
2018-11-25T02:25:33.003Z,79.90
2018-11-25T02:28:01.503Z,80.60
2018-11-25T02:30:29.971Z,79.80
2018-11-25T02:32:58.465Z,79.90
2018-11-25T02:35:26.979Z,80.00
2018-11-25T02:37:55.459Z,79.80
2018-11-25T02:40:23.896Z,79.70
2018-11-25T02:42:52.585Z,79.70
2018-11-25T02:45:21.106Z,79.70
2018-11-25T02:47:50.407Z,79.70
2018-11-25T02:50:26.350Z,79.60
2018-11-25T02:52:56.960Z,79.70
2018-11-25T02:55:26.215Z,79.90
2018-11-25T02:57:54.701Z,79.60
2018-11-25T03:00:23.198Z,79.60
2018-11-25T03:02:51.660Z,79.70
2018-11-25T03:05:20.173Z,79.60
2018-11-25T03:07:48.670Z,79.60
2018-11-25T03:10:17.205Z,80.30
2018-11-25T03:12:45.708Z,79.50
2018-11-25T03:15:16.244Z,80.30
2018-11-25T03:17:44.748Z,79.60
2018-11-25T03:20:14.354Z,79.60
2018-11-25T03:22:42.895Z,79.50
2018-11-25T03:25:16.442Z,79.50
2018-11-25T03:27:44.987Z,79.50
2018-11-25T03:30:14.560Z,79.60
2018-11-25T03:32:43.313Z,79.60
2018-11-25T03:35:12.412Z,79.60
2018-11-25T03:37:41.208Z,79.60
2018-11-25T03:40:13.684Z,79.60
2018-11-25T03:42:42.192Z,79.60
2018-11-25T03:45:12.137Z,79.60
2018-11-25T03:47:40.752Z,79.50
2018-11-25T03:50:10.149Z,79.50
2018-11-25T03:52:38.663Z,79.60
2018-11-25T03:55:09.412Z,79.50
2018-11-25T03:57:38.077Z,79.50
2018-11-25T04:00:14.283Z,79.50
2018-11-25T04:02:42.780Z,79.50
2018-11-25T04:05:12.478Z,79.40
2018-11-25T04:07:41.096Z,79.50
2018-11-25T04:10:11.678Z,79.40
2018-11-25T04:12:40.196Z,79.40
2018-11-25T04:15:14.115Z,79.50
2018-11-25T04:17:42.641Z,79.50
2018-11-25T04:20:12.336Z,79.50
2018-11-25T04:22:41.224Z,79.50
2018-11-25T04:25:10.557Z,79.50
2018-11-25T04:27:39.037Z,79.40
2018-11-25T04:30:14.337Z,80.20
2018-11-25T04:32:43.172Z,79.50
2018-11-25T04:35:12.398Z,79.50
2018-11-25T04:37:40.885Z,80.30
2018-11-25T04:40:13.336Z,79.50
2018-11-25T04:42:41.823Z,79.50
2018-11-25T04:45:12.178Z,79.50
2018-11-25T04:47:40.863Z,79.50
2018-11-25T04:50:11.909Z,79.50
2018-11-25T04:52:41.133Z,79.50
2018-11-25T04:55:09.489Z,79.50
2018-11-25T04:57:37.945Z,79.50
2018-11-25T05:00:10.170Z,79.50
2018-11-25T05:02:39.092Z,79.60
2018-11-25T05:05:09.828Z,79.70
2018-11-25T05:07:38.266Z,79.70
2018-11-25T05:10:10.074Z,79.70
2018-11-25T05:12:38.587Z,79.70
2018-11-25T05:15:08.972Z,79.70
2018-11-25T05:17:37.473Z,79.70
2018-11-25T05:20:07.961Z,79.70
2018-11-25T05:22:36.447Z,79.70
2018-11-25T05:25:05.466Z,79.70
2018-11-25T05:27:33.912Z,79.70
2018-11-25T05:30:02.359Z,79.70
2018-11-25T05:32:30.935Z,79.80
2018-11-25T05:34:59.395Z,79.70
2018-11-25T05:37:27.920Z,79.70
2018-11-25T05:39:56.435Z,79.80
2018-11-25T05:42:25.020Z,79.80
2018-11-25T05:44:53.510Z,79.80
2018-11-25T05:47:21.947Z,79.80
2018-11-25T05:49:50.405Z,79.80
2018-11-25T05:52:18.914Z,79.80
2018-11-25T05:54:47.375Z,79.80
2018-11-25T05:57:15.868Z,79.80
2018-11-25T05:59:44.396Z,79.80
2018-11-25T06:02:12.932Z,79.90
2018-11-25T06:04:41.422Z,79.90
2018-11-25T06:07:09.944Z,79.90
2018-11-25T06:09:38.431Z,79.80
2018-11-25T06:12:06.962Z,79.80
2018-11-25T06:14:35.519Z,79.90
2018-11-25T06:17:04.008Z,79.80
2018-11-25T06:19:32.556Z,79.80
2018-11-25T06:22:01.012Z,79.80
2018-11-25T06:24:29.492Z,79.80
2018-11-25T06:26:57.974Z,79.80
2018-11-25T06:29:26.457Z,79.70
2018-11-25T06:31:55.043Z,79.90
2018-11-25T06:34:23.572Z,79.60
2018-11-25T06:36:52.317Z,79.60
2018-11-25T06:39:20.842Z,79.70
2018-11-25T06:41:49.346Z,79.80
2018-11-25T06:44:17.821Z,79.60
2018-11-25T06:46:46.361Z,79.60
2018-11-25T06:49:14.954Z,79.70
2018-11-25T06:51:43.973Z,79.80
2018-11-25T06:54:12.449Z,79.80
2018-11-25T06:56:40.912Z,79.80
2018-11-25T06:59:09.387Z,79.70
2018-11-25T07:01:37.874Z,79.80
2018-11-25T07:04:06.415Z,79.80
2018-11-25T07:06:34.895Z,79.80
2018-11-25T07:09:03.490Z,79.80
2018-11-25T07:11:31.949Z,79.80
2018-11-25T07:14:00.466Z,79.80
2018-11-25T07:16:28.941Z,80.00
2018-11-25T07:18:57.427Z,80.00
2018-11-25T07:21:25.880Z,80.00
2018-11-25T07:23:54.339Z,79.90
2018-11-25T07:26:22.787Z,79.90
2018-11-25T07:28:51.298Z,79.90
2018-11-25T07:31:19.778Z,79.90
2018-11-25T07:33:48.368Z,79.90
2018-11-25T07:36:16.890Z,79.90
2018-11-25T07:38:45.386Z,79.80
2018-11-25T07:41:13.871Z,79.90
2018-11-25T07:43:42.378Z,79.90
2018-11-25T07:46:10.889Z,79.90
2018-11-25T07:48:39.406Z,79.90
2018-11-25T07:51:07.855Z,79.90
2018-11-25T07:53:36.343Z,79.90
2018-11-25T07:56:04.994Z,79.90
2018-11-25T07:58:33.441Z,79.90
2018-11-25T08:01:01.964Z,79.90
2018-11-25T08:03:30.465Z,79.90
2018-11-25T08:05:58.991Z,80.60
2018-11-25T08:08:27.512Z,79.90
2018-11-25T08:10:55.989Z,79.90
2018-11-25T08:13:24.452Z,80.00
2018-11-25T08:15:52.897Z,80.00
2018-11-25T08:18:21.370Z,80.10
2018-11-25T08:20:49.828Z,80.10
2018-11-25T08:23:18.305Z,80.10
2018-11-25T08:25:46.758Z,80.10
2018-11-25T08:28:15.291Z,80.10
2018-11-25T08:30:43.763Z,80.10
2018-11-25T08:33:12.479Z,80.10
2018-11-25T08:35:40.950Z,80.10
2018-11-25T08:38:09.461Z,80.20
2018-11-25T08:40:37.948Z,80.20
2018-11-25T08:43:06.465Z,80.20
2018-11-25T08:45:35.013Z,80.10
2018-11-25T08:48:03.527Z,80.10
2018-11-25T08:50:32.001Z,80.10
2018-11-25T08:53:00.488Z,80.10
2018-11-25T08:55:28.940Z,80.20
2018-11-25T08:57:57.433Z,80.20
2018-11-25T09:00:27.180Z,80.20
2018-11-25T09:02:56.055Z,80.10
2018-11-25T09:05:24.573Z,80.10
2018-11-25T09:07:53.120Z,80.10
2018-11-25T09:10:22.238Z,80.20
2018-11-25T09:12:55.817Z,80.20
2018-11-25T09:15:25.700Z,80.30
2018-11-25T09:17:54.243Z,80.30
2018-11-25T09:20:22.881Z,80.20
2018-11-25T09:22:52.043Z,80.20
2018-11-25T09:25:32.756Z,80.20
2018-11-25T09:28:02.309Z,80.30
2018-11-25T09:30:31.819Z,80.20
2018-11-25T09:33:00.412Z,80.20
2018-11-25T09:35:28.996Z,80.20
2018-11-25T09:37:57.498Z,80.20
2018-11-25T09:40:27.042Z,80.20
2018-11-25T09:42:55.680Z,80.30
2018-11-25T09:45:24.267Z,80.40
2018-11-25T09:47:52.751Z,80.40
2018-11-25T09:50:22.188Z,80.30
2018-11-25T09:52:50.848Z,80.30
2018-11-25T09:55:21.275Z,80.30
2018-11-25T09:57:51.854Z,80.40
2018-11-25T10:00:24.376Z,80.30
2018-11-25T10:02:52.888Z,80.30
2018-11-25T10:05:21.392Z,80.30
2018-11-25T10:07:49.921Z,80.20
2018-11-25T10:10:19.487Z,80.20
2018-11-25T10:12:48.153Z,80.30
2018-11-25T10:15:17.686Z,80.30
2018-11-25T10:17:46.227Z,80.30
2018-11-25T10:20:20.944Z,80.20
2018-11-25T10:22:49.508Z,80.30
2018-11-25T10:25:18.174Z,80.30
2018-11-25T10:27:46.652Z,80.30
2018-11-25T10:30:30.109Z,80.30
2018-11-25T10:33:03.931Z,80.30
2018-11-25T10:35:32.468Z,80.30
2018-11-25T10:38:00.919Z,80.30
2018-11-25T10:40:29.468Z,80.30
2018-11-25T10:42:57.928Z,80.40
2018-11-25T10:45:27.448Z,80.40
2018-11-25T10:47:57.022Z,80.30
2018-11-25T10:50:25.553Z,80.40
2018-11-25T10:52:54.116Z,80.30
2018-11-25T10:55:23.008Z,80.40
2018-11-25T10:57:52.454Z,80.40
2018-11-25T11:00:31.337Z,80.30
2018-11-25T11:03:05.221Z,80.30
2018-11-25T11:05:38.982Z,80.30
2018-11-25T11:08:08.394Z,80.30
2018-11-25T11:10:36.960Z,80.30
2018-11-25T11:13:06.596Z,80.30
2018-11-25T11:15:35.165Z,80.30
2018-11-25T11:18:03.747Z,80.30
2018-11-25T11:20:32.366Z,80.30
2018-11-25T11:23:00.914Z,80.30
2018-11-25T11:25:29.447Z,80.30
2018-11-25T11:27:57.981Z,80.30
2018-11-25T11:30:26.487Z,80.30
2018-11-25T11:32:55.015Z,80.30
2018-11-25T11:35:23.557Z,80.40
2018-11-25T11:37:52.102Z,80.40
2018-11-25T11:40:20.656Z,80.50
2018-11-25T11:42:49.204Z,80.60
2018-11-25T11:45:17.701Z,80.60
2018-11-25T11:47:46.304Z,80.60
2018-11-25T11:50:15.960Z,80.60
2018-11-25T11:52:44.770Z,80.70
2018-11-25T11:55:14.248Z,80.60
2018-11-25T11:57:43.524Z,80.60
2018-11-25T12:00:16.717Z,80.60
2018-11-25T12:02:45.204Z,80.60
2018-11-25T12:05:13.680Z,80.60
2018-11-25T12:07:42.247Z,80.60
2018-11-25T12:10:12.215Z,80.60
2018-11-25T12:12:40.713Z,80.60
2018-11-25T12:15:12.005Z,80.60
2018-11-25T12:17:40.546Z,80.70
2018-11-25T12:20:09.941Z,80.60
2018-11-25T12:22:38.428Z,80.60
2018-11-25T12:25:10.502Z,80.60
2018-11-25T12:27:39.072Z,80.60
2018-11-25T12:30:09.915Z,80.60
2018-11-25T12:32:38.658Z,80.60
2018-11-25T12:35:08.006Z,80.60
2018-11-25T12:37:36.578Z,80.60
2018-11-25T12:40:07.856Z,80.60
2018-11-25T12:42:36.315Z,80.60
2018-11-25T12:45:05.615Z,80.50
2018-11-25T12:47:34.335Z,80.60
2018-11-25T12:50:02.858Z,80.60
2018-11-25T12:52:31.402Z,80.60
2018-11-25T12:54:59.941Z,80.60
2018-11-25T12:57:28.531Z,80.60
2018-11-25T12:59:57.007Z,80.60
2018-11-25T13:02:25.465Z,80.70
2018-11-25T13:04:54.062Z,80.80
2018-11-25T13:07:22.659Z,80.70
2018-11-25T13:09:51.165Z,80.70
2018-11-25T13:12:19.640Z,80.90
2018-11-25T13:14:48.213Z,80.70
2018-11-25T13:17:16.687Z,80.70
2018-11-25T13:19:45.212Z,80.70
2018-11-25T13:22:13.801Z,80.70
2018-11-25T13:24:42.304Z,80.70
2018-11-25T13:27:10.952Z,80.70
2018-11-25T13:29:39.422Z,80.70
2018-11-25T13:32:07.993Z,80.70
2018-11-25T13:34:36.555Z,80.70
2018-11-25T13:37:05.585Z,80.70
2018-11-25T13:39:34.397Z,80.70
2018-11-25T13:42:02.909Z,80.80
2018-11-25T13:44:31.421Z,80.60
2018-11-25T13:47:00.151Z,80.60
2018-11-25T13:49:28.719Z,80.60
2018-11-25T13:51:57.249Z,80.60
2018-11-25T13:54:25.803Z,80.60
2018-11-25T13:56:54.412Z,80.60
2018-11-25T13:59:22.949Z,80.60
2018-11-25T14:01:51.470Z,80.60
2018-11-25T14:04:20.097Z,80.60
2018-11-25T14:06:48.677Z,80.60
2018-11-25T14:09:17.232Z,80.60
2018-11-25T14:11:45.692Z,80.60
2018-11-25T14:14:14.170Z,80.70
2018-11-25T14:16:42.729Z,80.60
2018-11-25T14:19:11.293Z,80.60
2018-11-25T14:21:39.826Z,80.60
2018-11-25T14:24:08.533Z,80.60
2018-11-25T14:26:39.980Z,80.60
2018-11-25T14:29:08.498Z,80.50
2018-11-25T14:31:37.014Z,80.40
2018-11-25T14:34:05.785Z,80.40
2018-11-25T14:36:34.329Z,80.40
2018-11-25T14:39:02.933Z,80.40
2018-11-25T14:41:31.399Z,80.30
2018-11-25T14:43:59.896Z,80.30
2018-11-25T14:46:28.382Z,80.30
2018-11-25T14:48:56.884Z,80.20
2018-11-25T14:51:25.516Z,80.20
2018-11-25T14:53:54.019Z,80.20
2018-11-25T14:56:22.513Z,80.20
2018-11-25T14:58:51.010Z,80.10
2018-11-25T15:01:19.530Z,80.10
2018-11-25T15:03:49.454Z,80.10
2018-11-25T15:06:17.976Z,80.00
2018-11-25T15:08:46.823Z,80.00
2018-11-25T15:11:15.413Z,80.00
2018-11-25T15:13:44.043Z,80.10
2018-11-25T15:16:14.368Z,80.00
2018-11-25T15:18:42.881Z,80.00
2018-11-25T15:21:14.895Z,80.00
2018-11-25T15:23:43.751Z,80.00
2018-11-25T15:26:14.855Z,80.00
2018-11-25T15:28:43.455Z,80.00
2018-11-25T15:31:12.010Z,79.90
2018-11-25T15:33:41.044Z,79.90
2018-11-25T15:36:09.797Z,80.00
2018-11-25T15:38:38.483Z,80.00
2018-11-25T15:41:07.171Z,80.10
2018-11-25T15:43:35.874Z,80.10
2018-11-25T15:46:04.788Z,80.20
2018-11-25T15:48:33.703Z,80.20
2018-11-25T15:51:02.566Z,80.10
2018-11-25T15:53:31.362Z,79.60
2018-11-25T15:56:02.113Z,80.10
2018-11-25T15:58:30.776Z,80.10
2018-11-25T16:00:59.572Z,80.10
2018-11-25T16:03:28.280Z,80.20
2018-11-25T16:09:09.741Z,80.10
2018-11-25T16:11:38.242Z,80.10
2018-11-25T16:14:06.764Z,80.10
2018-11-25T16:16:35.311Z,80.10
2018-11-25T16:19:03.930Z,80.00
2018-11-25T16:21:32.350Z,80.00
2018-11-25T16:24:00.833Z,80.00
2018-11-25T16:26:32.391Z,79.90
2018-11-25T16:29:05.102Z,80.00
2018-11-25T16:31:33.847Z,80.10
2018-11-25T16:34:02.119Z,80.10
2018-11-25T16:36:30.807Z,80.20
2018-11-25T16:38:59.329Z,80.30
2018-11-25T16:41:27.834Z,80.40
2018-11-25T16:43:56.705Z,80.40
2018-11-25T16:46:25.366Z,80.50
2018-11-25T16:48:53.885Z,80.60
2018-11-25T16:51:22.466Z,80.50
2018-11-25T16:53:51.055Z,80.50
2018-11-25T16:56:19.591Z,80.40
2018-11-25T16:58:48.053Z,80.30
2018-11-25T17:01:16.539Z,80.30
2018-11-25T17:03:45.045Z,80.40
2018-11-25T17:06:13.824Z,80.40
2018-11-25T17:08:43.481Z,80.40
2018-11-25T17:11:12.154Z,80.40
2018-11-25T17:13:40.642Z,80.30
2018-11-25T17:16:09.490Z,81.10
2018-11-25T17:18:38.698Z,80.30
2018-11-25T17:21:07.316Z,80.30
2018-11-25T17:23:35.763Z,80.90
2018-11-25T17:26:04.265Z,80.30
2018-11-25T17:28:32.722Z,80.30
2018-11-25T17:31:01.349Z,80.30
2018-11-25T17:33:29.779Z,80.40
2018-11-25T17:35:58.331Z,80.40
2018-11-25T17:38:26.807Z,80.40
2018-11-25T17:40:55.532Z,80.40
2018-11-25T17:43:24.668Z,80.30
2018-11-25T17:45:53.143Z,80.20
2018-11-25T17:48:21.702Z,80.20
2018-11-25T17:50:50.454Z,80.10
2018-11-25T17:53:20.808Z,80.20
2018-11-25T17:55:47.488Z,80.10
2018-11-25T17:58:16.109Z,80.80
2018-11-25T18:00:51.786Z,80.00
2018-11-25T18:03:23.620Z,80.00
2018-11-25T18:05:52.099Z,80.00
2018-11-25T18:08:20.564Z,79.80
2018-11-25T18:10:49.151Z,79.80
2018-11-25T18:13:18.904Z,79.80
2018-11-25T18:15:47.548Z,79.80
2018-11-25T18:18:22.434Z,79.70
2018-11-25T18:21:02.170Z,79.70
2018-11-25T18:23:30.661Z,79.50
2018-11-25T18:25:59.133Z,79.50
2018-11-25T18:28:27.604Z,79.40
2018-11-25T18:30:56.080Z,79.50
2018-11-25T18:33:24.581Z,79.40
2018-11-25T18:35:53.062Z,79.40
2018-11-25T18:38:21.697Z,79.60
2018-11-25T18:40:50.164Z,79.60
2018-11-25T18:43:18.648Z,79.80
2018-11-25T18:45:47.584Z,79.90
2018-11-25T18:48:16.932Z,80.10
2018-11-25T18:50:45.465Z,80.10
2018-11-25T18:53:14.107Z,80.30
2018-11-25T18:55:41.512Z,80.20
2018-11-25T18:58:09.961Z,80.20
2018-11-25T19:00:52.556Z,80.20
2018-11-25T19:03:21.071Z,80.20
2018-11-25T19:05:53.418Z,80.20
2018-11-25T19:08:21.865Z,80.10
2018-11-25T19:10:50.399Z,80.10
2018-11-25T19:13:18.931Z,80.00
2018-11-25T19:15:47.625Z,80.00
2018-11-25T19:18:16.084Z,80.00
2018-11-25T19:20:44.573Z,80.00
2018-11-25T19:23:13.951Z,79.80
2018-11-25T19:25:42.483Z,79.80
2018-11-25T19:28:10.943Z,79.80
2018-11-25T19:30:39.423Z,79.90
2018-11-25T19:33:09.391Z,79.80
2018-11-25T19:35:38.159Z,79.80
2018-11-25T19:38:07.667Z,79.90
2018-11-25T19:40:36.844Z,80.60
2018-11-25T19:43:06.132Z,80.00
2018-11-25T19:45:34.703Z,80.00
2018-11-25T19:48:03.351Z,80.00
2018-11-25T19:50:34.371Z,80.00
2018-11-25T19:53:02.925Z,80.00
2018-11-25T19:55:31.392Z,80.10
2018-11-25T19:57:59.931Z,80.00
2018-11-25T20:00:28.369Z,79.90
2018-11-25T20:02:56.859Z,79.90
2018-11-25T20:05:25.442Z,79.90
2018-11-25T20:07:54.073Z,79.90
2018-11-25T20:10:23.871Z,79.90
2018-11-25T20:12:55.569Z,79.80
2018-11-25T20:15:24.089Z,80.60
2018-11-25T20:17:54.501Z,79.90
2018-11-25T20:20:22.864Z,79.80
2018-11-25T20:22:51.794Z,79.90
2018-11-25T20:25:20.574Z,79.80
2018-11-25T20:27:51.403Z,79.90
2018-11-25T20:30:23.929Z,79.70
2018-11-25T20:32:57.778Z,79.70
2018-11-25T20:35:26.307Z,79.80
2018-11-25T20:38:00.333Z,79.70
2018-11-25T20:40:28.800Z,79.70
2018-11-25T20:42:57.291Z,79.80
2018-11-25T20:45:38.398Z,79.80
2018-11-25T20:48:00.476Z,79.80
2018-11-25T20:50:28.974Z,79.80
2018-11-25T20:53:03.012Z,79.80
2018-11-25T20:55:31.638Z,79.80
2018-11-25T20:58:00.108Z,79.80
2018-11-25T21:00:29.912Z,79.70
2018-11-25T21:02:58.391Z,79.80
2018-11-25T21:05:26.917Z,79.80
2018-11-25T21:07:55.392Z,79.20
2018-11-25T21:10:23.848Z,79.70
2018-11-25T21:12:53.448Z,79.80
2018-11-25T21:15:21.924Z,79.90
2018-11-25T21:17:50.360Z,79.70
2018-11-25T21:20:21.279Z,79.80
2018-11-25T21:22:50.019Z,79.80
2018-11-25T21:25:20.661Z,79.80
2018-11-25T21:27:49.349Z,79.80
2018-11-25T21:30:21.950Z,79.80
2018-11-25T21:32:51.701Z,79.70
2018-11-25T21:35:20.154Z,79.70
2018-11-25T21:37:48.633Z,79.50
2018-11-25T21:40:20.318Z,79.50
2018-11-25T21:42:48.775Z,79.50
2018-11-25T21:45:18.205Z,79.40
2018-11-25T21:47:47.061Z,79.40
2018-11-25T21:50:18.541Z,79.10
2018-11-25T21:52:47.029Z,79.50
2018-11-25T21:55:16.438Z,79.50
2018-11-25T21:57:44.949Z,79.50
2018-11-25T22:00:15.484Z,79.20
2018-11-25T22:02:43.996Z,79.60
2018-11-25T22:05:12.891Z,79.60
2018-11-25T22:07:41.408Z,79.60
2018-11-25T22:10:11.052Z,79.60
2018-11-25T22:12:40.185Z,79.60
2018-11-25T22:15:11.017Z,79.70
2018-11-25T22:17:39.535Z,79.80
2018-11-25T22:20:09.268Z,79.80
2018-11-25T22:22:37.739Z,79.90
2018-11-25T22:25:09.438Z,79.90
2018-11-25T22:27:37.925Z,79.90
2018-11-25T22:30:10.207Z,79.90
2018-11-25T22:32:38.701Z,79.90
2018-11-25T22:35:11.074Z,79.80
2018-11-25T22:37:39.490Z,79.70
2018-11-25T22:40:11.141Z,79.60
2018-11-25T22:42:40.306Z,79.50
2018-11-25T22:45:10.138Z,79.50
2018-11-25T22:47:38.705Z,79.50
2018-11-25T22:50:11.823Z,79.50
2018-11-25T22:52:40.275Z,79.70
2018-11-25T22:55:18.970Z,79.70
2018-11-25T22:57:47.421Z,79.80
2018-11-25T23:00:23.552Z,79.90
2018-11-25T23:02:52.410Z,79.90
2018-11-25T23:05:32.023Z,79.80
2018-11-25T23:08:00.783Z,79.80
2018-11-25T23:10:29.224Z,79.80
2018-11-25T23:12:57.690Z,79.90
2018-11-25T23:15:26.772Z,79.90
2018-11-25T23:17:55.330Z,79.80
2018-11-25T23:20:23.804Z,79.80
2018-11-25T23:22:52.326Z,79.80
2018-11-25T23:25:20.855Z,79.90
2018-11-25T23:27:49.494Z,79.80
2018-11-25T23:30:18.077Z,79.90
2018-11-25T23:32:46.629Z,79.80
2018-11-25T23:35:33.051Z,79.80
2018-11-25T23:38:01.599Z,79.90
2018-11-25T23:40:30.074Z,79.80
2018-11-25T23:42:58.506Z,79.80
2018-11-25T23:45:27.427Z,79.80
2018-11-25T23:47:56.014Z,79.80
2018-11-25T23:50:24.574Z,79.90
2018-11-25T23:52:53.095Z,79.90
2018-11-25T23:55:21.700Z,79.90
2018-11-25T23:57:50.285Z,79.90
